Kego, Minnesota
Current Conditions -  °F | °C
As of 4:36 AM on Tuesday 27 Jan 2015 (Local Time) from KXVG Reporting Station
Overcast Overcast  
Wind Chill: 28°   Ceiling: 1000
Heat Index: 28°   Visibility: 10mi
Dew Point: 25°   Wind: 0mph
Humidity: 86%   Direction: NA
Pressure: 30.05"   Gusts: NA
Location:  47.0632°N, 94.1534°W
Report Text: KXVG 271036Z AUTO 00000KT 10SM OVC010 M02/M04 A3005 RMK AO2
Loading
Personal Weather Stations






























Interactive Weather Map New forecast layout! Learn more

10-Day Weather Forecast

Advertisements
Track Severe Weather on mobile